Time;durP1;ratioP1;P1;durP2;ratioP2;P2;SDS_P1;SDS_P2;PMS_P1;PMS_P2;Temp;Humidity;BMP_temperature;BMP_pressure;BME280_temperature;BME280_humidity;BME280_pressure;Samples;Min_cycle;Max_cycle;Signal;HPM_P1;HPM_P2
2023/08/30 00:00:07;;;;;;;1.53;1.40;;;;;;;;;;5038798;28;20219;-88
2023/08/30 00:02:33;;;;;;;3.43;1.13;;;;;;;;;;5036566;28;20223;-88
2023/08/30 00:04:59;;;;;;;1.80;1.70;;;;;;;;;;5020226;28;20241;-88
2023/08/30 00:07:25;;;;;;;1.40;1.30;;;;;;;;;;5035720;28;20227;-89
2023/08/30 00:09:50;;;;;;;4.65;1.45;;;;;;;;;;5035771;28;20219;-89
2023/08/30 00:12:16;;;;;;;1.52;1.33;;;;;;;;;;5019591;28;20227;-89
2023/08/30 00:14:41;;;;;;;2.70;1.33;;;;;;;;;;5027644;28;20228;-89
2023/08/30 00:17:07;;;;;;;3.42;1.30;;;;;;;;;;5036117;28;20219;-90
2023/08/30 00:19:33;;;;;;;1.30;1.20;;;;;;;;;;5004421;28;20645;-89
2023/08/30 00:21:58;;;;;;;1.10;1.10;;;;;;;;;;5025944;28;20306;-89
2023/08/30 00:24:24;;;;;;;1.70;1.35;;;;;;;;;;5021501;28;20212;-90
2023/08/30 00:26:50;;;;;;;1.30;1.20;;;;;;;;;;5026198;28;20226;-89
2023/08/30 00:29:16;;;;;;;1.17;1.10;;;;;;;;;;5026409;28;20590;-89
2023/08/30 00:31:41;;;;;;;1.30;1.30;;;;;;;;;;5036266;28;20223;-89
2023/08/30 00:34:07;;;;;;;1.10;1.10;;;;;;;;;;5035511;28;20223;-89
2023/08/30 00:36:33;;;;;;;1.23;1.13;;;;;;;;;;5019404;28;20235;-89
2023/08/30 00:38:59;;;;;;;1.17;1.17;;;;;;;;;;5036131;28;20215;-89
2023/08/30 00:41:24;;;;;;;2.20;1.43;;;;;;;;;;5034953;28;20207;-90
2023/08/30 00:43:50;;;;;;;2.23;1.60;;;;;;;;;;5035978;28;20702;-89
2023/08/30 00:46:16;;;;;;;2.30;1.33;;;;;;;;;;5034742;28;20297;-90
2023/08/30 00:49:08;;;;;;;;;;;;;;;;;;;;;
2023/08/30 00:52:07;;;;;;;1.53;1.43;;;;;;;;;;5019246;28;20224;-90
2023/08/30 00:55:29;;;;;;;2.53;1.23;;;;;;;;;;5008183;28;20393;-91
2023/08/30 00:58:08;;;;;;;;;;;;;;;;;;;;;
2023/08/30 01:01:20;;;;;;;1.50;1.40;;;;;;;;;;4974995;28;20228;-91
2023/08/30 01:14:13;;;;;;;1.27;1.17;;;;;;;;;;4981059;28;20719;-91
2023/08/30 01:16:44;;;;;;;1.50;1.40;;;;;;;;;;5006881;28;20234;-92
2023/08/30 01:23:58;;;;;;;;;;;;;;;;;;;;;
2023/08/30 01:31:20;;;;;;;1.33;1.30;;;;;;;;;;4926526;28;20299;-92
2023/08/30 01:45:08;;;;;;;1.03;1.00;;;;;;;;;;4949980;23;21017;-74
2023/08/30 01:47:34;;;;;;;2.20;1.27;;;;;;;;;;5052152;28;20221;-73
2023/08/30 01:50:03;;;;;;;1.93;0.90;;;;;;;;;;5036031;28;20210;-74
2023/08/30 01:52:29;;;;;;;1.30;1.20;;;;;;;;;;5040377;28;20279;-73
2023/08/30 01:54:56;;;;;;;0.90;0.90;;;;;;;;;;5043302;28;20240;-73
2023/08/30 01:57:25;;;;;;;2.80;1.23;;;;;;;;;;5049698;28;20745;-73
2023/08/30 01:59:53;;;;;;;1.20;1.20;;;;;;;;;;5041029;28;20211;-73
2023/08/30 02:02:24;;;;;;;1.13;1.10;;;;;;;;;;5040941;28;20214;-73
2023/08/30 02:04:52;;;;;;;1.07;1.07;;;;;;;;;;5033844;28;20219;-73
2023/08/30 02:07:20;;;;;;;0.80;0.80;;;;;;;;;;5022795;28;20297;-73
2023/08/30 02:09:56;;;;;;;2.40;1.10;;;;;;;;;;5052891;28;20246;-74
2023/08/30 02:12:24;;;;;;;2.37;1.30;;;;;;;;;;5033182;28;20225;-74
2023/08/30 02:14:50;;;;;;;0.90;0.90;;;;;;;;;;5034851;28;20287;-73
2023/08/30 02:17:18;;;;;;;1.00;0.90;;;;;;;;;;5015695;28;20219;-74
2023/08/30 02:19:48;;;;;;;0.97;0.97;;;;;;;;;;5034542;28;20225;-74
2023/08/30 02:22:20;;;;;;;1.03;1.00;;;;;;;;;;5043415;28;20741;-74
2023/08/30 02:24:45;;;;;;;1.07;1.00;;;;;;;;;;5035542;28;20221;-74
2023/08/30 02:27:11;;;;;;;1.53;1.03;;;;;;;;;;5037766;28;20593;-74
2023/08/30 02:29:39;;;;;;;1.40;1.30;;;;;;;;;;5044979;28;20230;-75
2023/08/30 02:32:06;;;;;;;1.70;1.60;;;;;;;;;;5020389;28;20214;-74
2023/08/30 02:34:37;;;;;;;1.20;1.10;;;;;;;;;;5043572;28;20222;-74
2023/08/30 02:37:03;;;;;;;1.53;1.20;;;;;;;;;;5043072;28;20249;-74
2023/08/30 02:39:30;;;;;;;1.20;1.20;;;;;;;;;;5042171;28;20254;-74
2023/08/30 02:41:58;;;;;;;3.73;1.80;;;;;;;;;;5043487;28;20230;-74
2023/08/30 02:44:26;;;;;;;1.10;1.10;;;;;;;;;;5044281;28;20226;-74
2023/08/30 02:46:52;;;;;;;1.10;1.10;;;;;;;;;;5041010;28;20590;-73
2023/08/30 02:49:17;;;;;;;2.30;1.20;;;;;;;;;;5041534;28;20622;-74
2023/08/30 02:51:44;;;;;;;2.17;1.30;;;;;;;;;;5019280;28;20250;-74
2023/08/30 02:54:14;;;;;;;1.03;1.03;;;;;;;;;;5044388;28;20348;-74
2023/08/30 02:56:42;;;;;;;0.97;0.97;;;;;;;;;;5026418;28;20302;-74
2023/08/30 02:59:07;;;;;;;0.93;0.93;;;;;;;;;;5021692;28;20777;-74
2023/08/30 03:01:38;;;;;;;0.90;0.90;;;;;;;;;;5045083;28;20550;-74
2023/08/30 03:04:11;;;;;;;0.80;0.80;;;;;;;;;;5040454;28;20229;-74
2023/08/30 03:06:37;;;;;;;0.90;0.90;;;;;;;;;;5049274;28;20684;-74
2023/08/30 03:09:04;;;;;;;2.23;1.20;;;;;;;;;;5053841;28;20225;-74
2023/08/30 03:11:35;;;;;;;1.20;1.10;;;;;;;;;;5032067;28;21815;-77
2023/08/30 03:14:03;;;;;;;4.47;1.10;;;;;;;;;;5016634;28;20214;-74
2023/08/30 03:16:31;;;;;;;1.20;1.10;;;;;;;;;;5026307;28;20246;-74
2023/08/30 03:18:57;;;;;;;1.27;1.27;;;;;;;;;;5027962;28;20242;-73
2023/08/30 03:21:25;;;;;;;1.90;1.40;;;;;;;;;;5026821;28;20218;-73
2023/08/30 03:23:55;;;;;;;1.53;1.40;;;;;;;;;;5009789;28;20219;-73
2023/08/30 03:26:23;;;;;;;1.40;1.30;;;;;;;;;;5011858;28;20317;-74
2023/08/30 03:28:51;;;;;;;1.57;1.47;;;;;;;;;;5028113;28;20215;-74
2023/08/30 03:31:20;;;;;;;1.70;1.60;;;;;;;;;;5027134;28;20218;-74
2023/08/30 03:33:49;;;;;;;2.17;1.80;;;;;;;;;;5034413;28;20226;-74
2023/08/30 03:36:16;;;;;;;1.80;1.70;;;;;;;;;;5027358;28;20223;-74
2023/08/30 03:41:15;;;;;;;1.50;1.40;;;;;;;;;;5045884;28;20314;-75
2023/08/30 03:46:16;;;;;;;1.60;1.50;;;;;;;;;;5032908;23;20231;-77
2023/08/30 03:48:41;;;;;;;2.30;1.83;;;;;;;;;;5012527;28;20230;-80
2023/08/30 03:51:07;;;;;;;1.50;1.40;;;;;;;;;;5042143;28;20220;-79
2023/08/30 03:53:32;;;;;;;1.80;1.70;;;;;;;;;;5030258;28;21149;-78
2023/08/30 03:55:59;;;;;;;1.87;1.77;;;;;;;;;;5009278;28;20761;-80
2023/08/30 03:58:29;;;;;;;1.70;1.60;;;;;;;;;;5010683;28;20219;-79
2023/08/30 04:04:41;;;;;;;1.63;1.40;;;;;;;;;;5045926;28;20258;-79
2023/08/30 04:07:11;;;;;;;1.70;1.60;;;;;;;;;;5046074;28;20288;-79
2023/08/30 04:09:41;;;;;;;2.00;1.90;;;;;;;;;;4995424;28;20308;-80
2023/08/30 04:12:09;;;;;;;3.07;1.83;;;;;;;;;;5044658;28;20227;-79
2023/08/30 04:14:34;;;;;;;2.43;2.20;;;;;;;;;;5011787;28;20286;-80
2023/08/30 04:17:02;;;;;;;2.50;2.30;;;;;;;;;;5008855;28;20376;-78
2023/08/30 04:19:28;;;;;;;2.20;2.10;;;;;;;;;;5029112;28;21212;-79
2023/08/30 04:21:53;;;;;;;2.10;2.00;;;;;;;;;;5008006;28;20227;-79
2023/08/30 04:24:19;;;;;;;1.70;1.60;;;;;;;;;;4992892;28;20216;-79
2023/08/30 04:26:44;;;;;;;2.00;1.90;;;;;;;;;;4994484;28;20236;-79
2023/08/30 04:29:10;;;;;;;4.97;2.40;;;;;;;;;;4994578;28;20325;-80
2023/08/30 04:31:36;;;;;;;3.03;1.90;;;;;;;;;;5025142;28;20223;-80
2023/08/30 04:34:02;;;;;;;1.67;1.60;;;;;;;;;;5009434;28;20223;-79
2023/08/30 04:36:30;;;;;;;3.13;1.90;;;;;;;;;;5010421;28;20327;-80
2023/08/30 04:38:57;;;;;;;1.90;1.80;;;;;;;;;;5010227;28;20300;-79
2023/08/30 04:41:23;;;;;;;3.27;2.10;;;;;;;;;;5010011;28;20219;-80
2023/08/30 04:43:49;;;;;;;2.33;2.13;;;;;;;;;;4992811;28;20254;-79
2023/08/30 04:46:14;;;;;;;2.50;2.30;;;;;;;;;;5008880;28;20962;-80
2023/08/30 04:48:44;;;;;;;2.63;2.43;;;;;;;;;;5008950;28;20264;-78
2023/08/30 04:51:15;;;;;;;2.60;2.40;;;;;;;;;;5005269;28;20230;-79
2023/08/30 04:53:43;;;;;;;3.00;2.80;;;;;;;;;;4995732;28;20223;-79
2023/08/30 04:56:19;;;;;;;4.87;3.50;;;;;;;;;;4993522;28;20215;-80
2023/08/30 04:58:47;;;;;;;2.97;2.77;;;;;;;;;;5011735;28;20219;-79
2023/08/30 05:01:13;;;;;;;4.03;2.87;;;;;;;;;;5028241;28;20230;-78
2023/08/30 05:03:42;;;;;;;2.90;2.70;;;;;;;;;;5011894;28;20250;-79
2023/08/30 05:06:11;;;;;;;2.63;2.43;;;;;;;;;;5008809;28;20227;-77
2023/08/30 05:08:38;;;;;;;3.70;3.37;;;;;;;;;;4997873;28;20237;-79
2023/08/30 05:11:06;;;;;;;3.73;3.30;;;;;;;;;;5026318;28;20218;-80
2023/08/30 05:13:33;;;;;;;4.27;3.10;;;;;;;;;;4992485;28;20740;-79
2023/08/30 05:15:58;;;;;;;4.67;3.63;;;;;;;;;;5026957;28;20238;-79
2023/08/30 05:18:27;;;;;;;6.53;3.73;;;;;;;;;;5014432;28;20220;-78
2023/08/30 05:20:52;;;;;;;3.70;3.40;;;;;;;;;;5023825;28;20223;-78
2023/08/30 05:23:18;;;;;;;3.67;3.37;;;;;;;;;;5025854;28;20341;-80
2023/08/30 05:25:46;;;;;;;4.00;3.70;;;;;;;;;;5009904;28;20228;-79
2023/08/30 05:28:14;;;;;;;3.80;3.50;;;;;;;;;;5025941;28;20215;-80
2023/08/30 05:30:41;;;;;;;3.83;3.53;;;;;;;;;;5041754;28;20265;-80
2023/08/30 05:33:16;;;;;;;3.37;3.07;;;;;;;;;;5012734;28;20233;-79
2023/08/30 05:36:03;;;;;;;4.10;3.80;;;;;;;;;;5040125;28;20308;-79
2023/08/30 05:38:47;;;;;;;4.37;3.90;;;;;;;;;;5029813;28;20221;-79
2023/08/30 05:41:22;;;;;;;4.13;3.80;;;;;;;;;;5010471;28;20234;-80
2023/08/30 05:43:51;;;;;;;4.13;3.80;;;;;;;;;;5031790;28;20322;-78
2023/08/30 05:46:16;;;;;;;3.40;3.10;;;;;;;;;;5025702;28;20265;-80
2023/08/30 05:48:42;;;;;;;4.10;3.60;;;;;;;;;;5028842;28;20211;-79
2023/08/30 05:51:10;;;;;;;4.23;3.93;;;;;;;;;;4991261;28;20561;-79
2023/08/30 05:53:35;;;;;;;4.03;3.63;;;;;;;;;;5007898;28;20223;-79
2023/08/30 05:56:03;;;;;;;4.03;3.73;;;;;;;;;;5010638;28;20238;-80
2023/08/30 05:58:32;;;;;;;4.37;3.97;;;;;;;;;;5009350;28;20231;-78
2023/08/30 06:01:01;;;;;;;3.50;3.20;;;;;;;;;;5034596;28;20215;-79
2023/08/30 06:03:31;;;;;;;3.47;3.27;;;;;;;;;;5027556;28;20223;-78
2023/08/30 06:05:57;;;;;;;5.18;3.45;;;;;;;;;;5036146;28;20227;-78
2023/08/30 06:08:25;;;;;;;5.00;3.90;;;;;;;;;;5001030;28;20223;-79
2023/08/30 06:10:51;;;;;;;11.82;4.90;;;;;;;;;;5034881;28;20219;-79
2023/08/30 06:13:20;;;;;;;9.45;4.82;;;;;;;;;;5015949;28;20227;-79
2023/08/30 06:15:50;;;;;;;6.25;4.70;;;;;;;;;;5017433;28;20231;-79
2023/08/30 06:18:17;;;;;;;5.15;4.72;;;;;;;;;;5020372;28;20223;-78
2023/08/30 06:20:45;;;;;;;5.13;4.63;;;;;;;;;;5051882;28;20223;-78
2023/08/30 06:23:11;;;;;;;5.30;4.80;;;;;;;;;;5037583;28;20271;-78
2023/08/30 06:25:37;;;;;;;5.53;4.90;;;;;;;;;;5024926;28;20227;-78
2023/08/30 06:28:05;;;;;;;5.10;4.60;;;;;;;;;;5041869;28;20235;-78
2023/08/30 06:30:33;;;;;;;5.57;5.13;;;;;;;;;;5010044;28;20272;-78
2023/08/30 06:32:59;;;;;;;5.30;4.80;;;;;;;;;;5043198;28;20231;-77
2023/08/30 06:35:25;;;;;;;8.48;5.13;;;;;;;;;;5016806;28;20706;-78
2023/08/30 06:37:53;;;;;;;5.55;5.15;;;;;;;;;;5039688;28;20274;-78
2023/08/30 06:40:19;;;;;;;5.55;5.10;;;;;;;;;;5056855;28;20231;-79
2023/08/30 06:42:46;;;;;;;5.88;5.47;;;;;;;;;;5020417;28;20230;-78
2023/08/30 06:45:12;;;;;;;6.30;5.70;;;;;;;;;;5038374;28;20227;-77
2023/08/30 06:47:40;;;;;;;5.65;5.25;;;;;;;;;;5012240;28;20238;-77
2023/08/30 06:50:06;;;;;;;6.15;5.65;;;;;;;;;;5036939;28;20238;-77
2023/08/30 06:52:31;;;;;;;6.18;5.65;;;;;;;;;;5021524;28;20211;-78
2023/08/30 06:54:57;;;;;;;6.13;5.68;;;;;;;;;;5022084;28;20234;-78
2023/08/30 06:57:22;;;;;;;6.05;5.38;;;;;;;;;;5018988;28;20223;-79
2023/08/30 06:59:50;;;;;;;6.05;5.55;;;;;;;;;;5036742;28;20227;-79
2023/08/30 07:02:16;;;;;;;6.43;5.93;;;;;;;;;;5036924;28;20321;-77
2023/08/30 07:04:44;;;;;;;6.65;6.13;;;;;;;;;;5014647;28;20223;-79
2023/08/30 07:07:12;;;;;;;6.32;5.88;;;;;;;;;;5014804;28;20226;-80
2023/08/30 07:09:38;;;;;;;7.15;6.60;;;;;;;;;;4984237;28;20768;-79
2023/08/30 07:12:04;;;;;;;12.48;6.43;;;;;;;;;;5011013;28;20223;-79
2023/08/30 07:14:30;;;;;;;6.80;6.30;;;;;;;;;;5047267;28;20224;-80
2023/08/30 07:16:59;;;;;;;7.15;6.65;;;;;;;;;;5012868;28;20239;-80
2023/08/30 07:19:27;;;;;;;7.53;6.82;;;;;;;;;;5012742;28;20281;-79
2023/08/30 07:21:52;;;;;;;7.35;6.75;;;;;;;;;;5013136;28;20237;-80
2023/08/30 07:24:18;;;;;;;6.95;6.25;;;;;;;;;;5010162;28;20219;-78
2023/08/30 07:26:43;;;;;;;7.55;6.95;;;;;;;;;;5045701;28;20236;-79
2023/08/30 07:29:09;;;;;;;6.72;6.25;;;;;;;;;;4995906;28;20273;-80
2023/08/30 07:31:37;;;;;;;7.95;7.20;;;;;;;;;;5026965;28;20219;-79
2023/08/30 07:34:05;;;;;;;7.40;6.90;;;;;;;;;;5016372;28;20258;-80
2023/08/30 07:36:32;;;;;;;9.05;7.60;;;;;;;;;;5015545;28;20227;-79
2023/08/30 07:38:58;;;;;;;7.68;7.05;;;;;;;;;;5014959;28;20326;-80
2023/08/30 07:41:25;;;;;;;9.70;7.78;;;;;;;;;;5009572;28;20228;-79
2023/08/30 07:43:51;;;;;;;8.20;7.55;;;;;;;;;;5012703;28;20219;-80
2023/08/30 07:46:16;;;;;;;7.40;6.88;;;;;;;;;;5017916;28;20232;-80
2023/08/30 07:48:42;;;;;;;7.60;7.00;;;;;;;;;;5010323;28;20215;-78
2023/08/30 07:51:10;;;;;;;8.73;8.02;;;;;;;;;;4994747;28;21454;-80
2023/08/30 07:53:39;;;;;;;8.40;6.95;;;;;;;;;;5033832;28;20219;-80
2023/08/30 07:56:09;;;;;;;8.23;7.53;;;;;;;;;;5011875;28;20227;-79
2023/08/30 07:58:40;;;;;;;7.97;7.00;;;;;;;;;;4995548;28;20277;-78
2023/08/30 08:01:05;;;;;;;7.57;6.97;;;;;;;;;;5009611;28;20230;-79
2023/08/30 08:03:31;;;;;;;7.38;6.78;;;;;;;;;;5008661;28;20215;-79
2023/08/30 08:06:01;;;;;;;7.30;6.60;;;;;;;;;;5015545;28;20227;-80
2023/08/30 08:08:29;;;;;;;7.75;7.05;;;;;;;;;;5012240;28;20220;-81
2023/08/30 08:10:55;;;;;;;7.60;6.90;;;;;;;;;;5008761;28;20234;-81
2023/08/30 08:13:20;;;;;;;7.75;7.00;;;;;;;;;;5013043;28;20223;-79
2023/08/30 08:15:46;;;;;;;8.13;7.10;;;;;;;;;;5026396;28;20246;-79
2023/08/30 08:18:11;;;;;;;6.90;6.30;;;;;;;;;;5027126;28;20276;-79
2023/08/30 08:20:39;;;;;;;7.03;6.28;;;;;;;;;;5027842;28;20215;-79
2023/08/30 08:23:05;;;;;;;6.18;5.70;;;;;;;;;;5012200;28;21097;-79
2023/08/30 08:25:33;;;;;;;6.88;6.00;;;;;;;;;;5007873;28;20250;-80
2023/08/30 08:28:00;;;;;;;6.43;5.93;;;;;;;;;;4993122;28;20231;-80
2023/08/30 08:30:26;;;;;;;6.18;5.65;;;;;;;;;;5011292;28;20227;-81
2023/08/30 08:32:51;;;;;;;5.45;4.90;;;;;;;;;;5028218;28;20238;-80
2023/08/30 08:35:17;;;;;;;5.90;5.30;;;;;;;;;;5026435;28;20683;-79
2023/08/30 08:37:42;;;;;;;5.10;4.70;;;;;;;;;;4994289;28;20748;-80
2023/08/30 08:40:08;;;;;;;5.38;4.97;;;;;;;;;;5008931;28;20216;-80
2023/08/30 08:42:36;;;;;;;7.40;5.05;;;;;;;;;;5025710;28;20339;-80
2023/08/30 08:45:05;;;;;;;6.45;4.30;;;;;;;;;;5010848;28;20319;-79
2023/08/30 08:47:31;;;;;;;5.68;4.25;;;;;;;;;;4992689;28;20234;-80
2023/08/30 08:49:57;;;;;;;4.47;3.58;;;;;;;;;;4994280;28;20219;-79
2023/08/30 08:52:28;;;;;;;4.10;3.70;;;;;;;;;;5012876;28;20223;-79
2023/08/30 08:54:54;;;;;;;3.90;3.60;;;;;;;;;;5028601;28;20308;-80
2023/08/30 08:57:20;;;;;;;4.57;4.18;;;;;;;;;;4995257;28;20676;-81
2023/08/30 08:59:48;;;;;;;4.65;4.25;;;;;;;;;;5014648;28;20231;-79
2023/08/30 09:02:16;;;;;;;4.63;4.18;;;;;;;;;;5026488;28;20219;-80
2023/08/30 09:04:41;;;;;;;5.32;4.18;;;;;;;;;;5026735;28;20246;-78
2023/08/30 09:07:09;;;;;;;4.25;3.83;;;;;;;;;;5045712;28;20696;-79
2023/08/30 09:09:35;;;;;;;3.97;3.67;;;;;;;;;;5027811;28;20223;-78
2023/08/30 09:12:00;;;;;;;5.40;4.10;;;;;;;;;;5022977;28;20207;-79
2023/08/30 09:14:26;;;;;;;5.57;4.05;;;;;;;;;;5029408;28;20314;-80
2023/08/30 09:17:00;;;;;;;4.93;4.43;;;;;;;;;;5031506;28;20230;-79
2023/08/30 09:19:25;;;;;;;4.47;4.07;;;;;;;;;;5024429;28;20843;-81
2023/08/30 09:21:52;;;;;;;4.20;3.47;;;;;;;;;;5010480;28;20216;-80
2023/08/30 09:24:18;;;;;;;3.63;3.33;;;;;;;;;;5045342;28;20223;-80
2023/08/30 09:26:47;;;;;;;4.35;3.95;;;;;;;;;;4995002;28;20269;-79
2023/08/30 09:29:13;;;;;;;5.20;3.85;;;;;;;;;;5008881;28;20239;-79
2023/08/30 09:31:40;;;;;;;4.68;4.15;;;;;;;;;;5009793;28;20215;-79
2023/08/30 09:34:05;;;;;;;5.50;5.00;;;;;;;;;;5027929;28;21601;-81
2023/08/30 09:36:40;;;;;;;5.28;4.80;;;;;;;;;;5009997;28;20238;-80
2023/08/30 09:39:10;;;;;;;10.32;6.05;;;;;;;;;;5029442;28;20226;-79
2023/08/30 09:41:39;;;;;;;5.07;4.68;;;;;;;;;;5000918;28;20713;-80
2023/08/30 09:44:24;;;;;;;5.75;5.25;;;;;;;;;;5012673;28;20727;-80
2023/08/30 09:46:53;;;;;;;6.63;6.07;;;;;;;;;;4985447;28;20219;-82
2023/08/30 09:49:25;;;;;;;6.28;5.68;;;;;;;;;;4998666;28;20216;-81
2023/08/30 09:51:55;;;;;;;6.07;5.57;;;;;;;;;;5012557;28;20219;-80
2023/08/30 09:54:23;;;;;;;5.88;5.30;;;;;;;;;;5001879;28;20215;-79
2023/08/30 09:56:52;;;;;;;5.30;4.80;;;;;;;;;;5002574;28;20227;-79
2023/08/30 09:59:17;;;;;;;6.32;4.50;;;;;;;;;;5015919;28;20226;-80
2023/08/30 10:01:46;;;;;;;4.95;4.43;;;;;;;;;;5008268;28;20211;-79
2023/08/30 10:04:12;;;;;;;8.02;5.25;;;;;;;;;;5022415;28;20642;-79
2023/08/30 10:06:40;;;;;;;5.90;5.22;;;;;;;;;;5004568;28;20215;-78
2023/08/30 10:09:10;;;;;;;5.70;5.20;;;;;;;;;;4984021;28;20211;-79
2023/08/30 10:11:36;;;;;;;6.47;5.85;;;;;;;;;;5000899;28;20234;-80
2023/08/30 10:14:06;;;;;;;6.25;5.65;;;;;;;;;;5000028;28;20211;-80
2023/08/30 10:16:43;;;;;;;5.90;5.38;;;;;;;;;;5017076;28;20243;-78
2023/08/30 10:19:15;;;;;;;5.07;4.68;;;;;;;;;;5004942;28;20274;-78
2023/08/30 10:21:43;;;;;;;5.82;4.95;;;;;;;;;;5033185;28;21019;-80
2023/08/30 10:24:09;;;;;;;5.63;4.78;;;;;;;;;;5018663;28;20222;-77
2023/08/30 10:26:34;;;;;;;8.98;4.80;;;;;;;;;;5022903;28;20231;-79
2023/08/30 10:29:00;;;;;;;4.95;4.55;;;;;;;;;;5015052;28;20226;-79
2023/08/30 10:31:29;;;;;;;6.95;5.00;;;;;;;;;;4997524;28;20784;-79
2023/08/30 10:33:55;;;;;;;4.43;4.03;;;;;;;;;;5012348;28;20717;-81
2023/08/30 10:36:24;;;;;;;6.22;4.00;;;;;;;;;;5035491;28;20237;-78
2023/08/30 10:38:50;;;;;;;4.43;3.85;;;;;;;;;;5021303;28;20224;-79
2023/08/30 10:41:20;;;;;;;4.53;4.00;;;;;;;;;;4999614;28;20212;-78
2023/08/30 10:43:49;;;;;;;4.45;3.80;;;;;;;;;;5022499;28;20311;-78
2023/08/30 10:46:15;;;;;;;4.32;3.92;;;;;;;;;;5021963;28;20763;-79
2023/08/30 10:48:42;;;;;;;3.85;3.55;;;;;;;;;;5039373;28;20231;-79
2023/08/30 10:51:36;;;;;;;5.55;3.45;;;;;;;;;;5034400;28;20223;-79
2023/08/30 10:54:09;;;;;;;4.88;3.88;;;;;;;;;;5057471;28;20294;-80
2023/08/30 10:56:35;;;;;;;5.90;3.92;;;;;;;;;;5037095;28;20235;-80
2023/08/30 10:59:03;;;;;;;4.55;4.15;;;;;;;;;;5006533;28;20229;-80
2023/08/30 11:01:28;;;;;;;4.78;4.32;;;;;;;;;;4986869;28;21103;-80
2023/08/30 11:03:56;;;;;;;3.70;3.25;;;;;;;;;;5028470;28;20224;-78
2023/08/30 11:06:22;;;;;;;4.75;3.50;;;;;;;;;;5032893;28;20281;-80
2023/08/30 11:08:50;;;;;;;4.63;3.88;;;;;;;;;;5017863;28;20222;-80
2023/08/30 11:11:15;;;;;;;3.08;2.78;;;;;;;;;;5001607;28;20216;-80
2023/08/30 11:13:41;;;;;;;3.88;3.58;;;;;;;;;;5014993;28;20222;-81
2023/08/30 11:16:07;;;;;;;6.30;4.07;;;;;;;;;;4999041;28;20223;-79
2023/08/30 11:18:42;;;;;;;3.95;3.65;;;;;;;;;;5018597;28;20238;-82
2023/08/30 11:21:09;;;;;;;4.07;3.67;;;;;;;;;;5033753;28;20218;-81
2023/08/30 11:23:34;;;;;;;4.00;3.60;;;;;;;;;;5016841;28;20296;-81
2023/08/30 11:26:00;;;;;;;4.57;4.10;;;;;;;;;;5034934;28;20219;-81
2023/08/30 11:28:26;;;;;;;4.80;3.53;;;;;;;;;;4993272;28;20227;-79
2023/08/30 11:30:54;;;;;;;3.67;3.30;;;;;;;;;;5018909;28;20223;-80
2023/08/30 11:33:22;;;;;;;3.53;3.22;;;;;;;;;;5003425;28;20219;-78
2023/08/30 11:35:51;;;;;;;6.03;3.03;;;;;;;;;;5018765;28;20571;-82
2023/08/30 11:38:18;;;;;;;2.90;2.55;;;;;;;;;;5017462;28;20552;-80
2023/08/30 11:40:46;;;;;;;4.10;3.15;;;;;;;;;;5000771;28;20226;-78
2023/08/30 11:43:11;;;;;;;5.70;2.90;;;;;;;;;;5020012;28;20302;-77
2023/08/30 11:45:39;;;;;;;3.13;2.80;;;;;;;;;;5025846;28;20224;-77
2023/08/30 11:48:05;;;;;;;3.13;2.80;;;;;;;;;;5015033;28;20219;-80
2023/08/30 11:50:31;;;;;;;3.17;2.90;;;;;;;;;;4998312;28;20227;-78
2023/08/30 11:52:56;;;;;;;3.10;2.78;;;;;;;;;;5014272;28;20219;-78
2023/08/30 11:55:22;;;;;;;6.30;3.85;;;;;;;;;;5018117;28;20277;-80
2023/08/30 11:57:50;;;;;;;5.07;3.47;;;;;;;;;;5018054;28;20215;-80
2023/08/30 12:00:18;;;;;;;5.90;3.17;;;;;;;;;;5011817;28;20311;-76
2023/08/30 12:02:44;;;;;;;3.95;3.17;;;;;;;;;;5017881;28;20227;-81
2023/08/30 12:05:11;;;;;;;3.42;3.00;;;;;;;;;;5031699;28;20306;-78
2023/08/30 12:07:37;;;;;;;3.67;3.00;;;;;;;;;;5000072;28;20592;-78
2023/08/30 12:10:10;;;;;;;6.68;2.65;;;;;;;;;;5032137;28;20226;-77
2023/08/30 12:12:44;;;;;;;5.47;3.08;;;;;;;;;;5027479;28;20216;-79
2023/08/30 12:15:14;;;;;;;3.75;2.88;;;;;;;;;;4994885;28;20261;-78
2023/08/30 12:17:40;;;;;;;4.25;2.53;;;;;;;;;;4993280;28;20331;-77
2023/08/30 12:20:06;;;;;;;3.00;2.70;;;;;;;;;;5012942;28;20589;-79
2023/08/30 12:22:39;;;;;;;4.05;2.47;;;;;;;;;;4999946;28;20227;-78
2023/08/30 12:25:15;;;;;;;2.30;2.10;;;;;;;;;;5011878;28;20223;-77
2023/08/30 12:27:41;;;;;;;3.70;2.40;;;;;;;;;;4987474;28;20219;-79
2023/08/30 12:30:08;;;;;;;2.75;1.77;;;;;;;;;;4982800;28;20217;-77
2023/08/30 12:32:36;;;;;;;2.28;1.83;;;;;;;;;;5003581;28;20969;-79
2023/08/30 12:35:07;;;;;;;3.22;2.20;;;;;;;;;;4984624;28;20274;-80
2023/08/30 12:37:35;;;;;;;7.57;2.47;;;;;;;;;;5012539;28;20231;-79
2023/08/30 12:40:00;;;;;;;2.80;2.30;;;;;;;;;;5032897;28;20239;-78
2023/08/30 12:42:26;;;;;;;3.95;2.13;;;;;;;;;;4998349;28;20249;-80
2023/08/30 12:44:51;;;;;;;2.90;2.20;;;;;;;;;;5016359;28;20227;-80
2023/08/30 12:47:19;;;;;;;2.42;2.08;;;;;;;;;;5017092;28;20318;-78
2023/08/30 12:49:49;;;;;;;2.40;2.10;;;;;;;;;;5050767;28;20257;-78
2023/08/30 12:52:16;;;;;;;2.60;2.08;;;;;;;;;;5021841;28;20215;-80
2023/08/30 12:54:41;;;;;;;3.70;1.90;;;;;;;;;;5018098;28;20223;-79
2023/08/30 12:57:07;;;;;;;3.25;2.30;;;;;;;;;;5017183;28;20231;-81
2023/08/30 12:59:33;;;;;;;2.00;1.70;;;;;;;;;;5001299;28;20216;-80
2023/08/30 13:02:05;;;;;;;2.40;2.08;;;;;;;;;;5017533;28;20219;-79
2023/08/30 13:04:46;;;;;;;3.55;2.45;;;;;;;;;;5016585;28;20231;-78
2023/08/30 13:10:15;;;;;;;5.45;2.22;;;;;;;;;;5029390;28;20246;-79
2023/08/30 13:12:57;;;;;;;2.20;1.92;;;;;;;;;;5029611;28;20273;-81
2023/08/30 13:15:27;;;;;;;2.35;1.95;;;;;;;;;;5037993;28;20226;-79
2023/08/30 13:22:03;;;;;;;4.40;2.03;;;;;;;;;;5027670;28;21769;-78
2023/08/30 13:24:51;;;;;;;4.85;1.90;;;;;;;;;;5005631;28;20231;-78
2023/08/30 13:27:23;;;;;;;4.20;1.90;;;;;;;;;;5037292;28;20219;-80
2023/08/30 13:29:49;;;;;;;6.13;2.38;;;;;;;;;;5032434;28;20223;-81
2023/08/30 13:32:45;;;;;;;2.33;2.00;;;;;;;;;;5014495;28;20226;-78
2023/08/30 13:42:36;;;;;;;8.77;2.15;;;;;;;;;;4987416;28;20292;-78
2023/08/30 13:45:02;;;;;;;3.17;2.05;;;;;;;;;;4987707;28;20243;-77
2023/08/30 13:47:34;;;;;;;4.65;1.92;;;;;;;;;;4981844;28;20291;-79
2023/08/30 13:50:18;;;;;;;2.35;2.15;;;;;;;;;;4966686;28;20217;-78
2023/08/30 13:53:09;;;;;;;3.55;2.08;;;;;;;;;;5004936;28;20228;-78
2023/08/30 13:55:50;;;;;;;4.05;2.40;;;;;;;;;;4989448;28;20235;-78
2023/08/30 13:58:30;;;;;;;4.07;2.22;;;;;;;;;;4989100;28;20233;-80
2023/08/30 14:01:01;;;;;;;2.67;2.15;;;;;;;;;;4984072;28;20794;-80
2023/08/30 14:07:07;;;;;;;2.53;2.13;;;;;;;;;;4955745;28;20257;-79
2023/08/30 14:10:06;;;;;;;5.43;2.38;;;;;;;;;;4954331;28;20284;-76
2023/08/30 14:13:13;;;;;;;2.80;1.98;;;;;;;;;;4939463;28;20287;-78
2023/08/30 14:15:45;;;;;;;2.10;1.90;;;;;;;;;;4967770;28;20602;-77
2023/08/30 14:18:14;;;;;;;5.18;2.10;;;;;;;;;;5006064;28;20226;-80
2023/08/30 14:20:45;;;;;;;3.13;1.92;;;;;;;;;;5034737;28;20242;-78
2023/08/30 14:24:07;;;;;;;3.20;1.80;;;;;;;;;;5064161;28;20313;-77
2023/08/30 14:26:41;;;;;;;3.90;2.10;;;;;;;;;;5053955;28;20253;-77
2023/08/30 14:32:23;;;;;;;4.60;1.92;;;;;;;;;;5059375;28;20214;-77
2023/08/30 14:35:25;;;;;;;3.90;1.95;;;;;;;;;;5056676;28;20210;-77
2023/08/30 14:44:58;;;;;;;3.15;2.40;;;;;;;;;;5071594;28;20268;-77
2023/08/30 14:47:23;;;;;;;3.03;1.98;;;;;;;;;;5020702;28;20223;-77
2023/08/30 14:49:51;;;;;;;3.75;1.92;;;;;;;;;;5056031;28;20207;-77
2023/08/30 14:52:17;;;;;;;3.63;1.85;;;;;;;;;;5062657;28;20225;-77
2023/08/30 14:54:42;;;;;;;3.35;1.92;;;;;;;;;;5045425;28;20219;-77
2023/08/30 14:57:08;;;;;;;2.33;2.10;;;;;;;;;;5009976;28;20229;-77
2023/08/30 14:59:34;;;;;;;2.30;2.10;;;;;;;;;;5046106;28;20223;-77
2023/08/30 15:02:02;;;;;;;3.50;2.20;;;;;;;;;;5061668;28;20214;-77
2023/08/30 15:04:27;;;;;;;2.80;1.92;;;;;;;;;;5028577;28;20762;-78
2023/08/30 15:06:53;;;;;;;2.72;2.00;;;;;;;;;;5053212;28;20230;-77
2023/08/30 15:09:18;;;;;;;2.60;2.30;;;;;;;;;;5071627;28;20217;-77
2023/08/30 15:11:46;;;;;;;2.03;1.92;;;;;;;;;;5034642;28;20231;-78
2023/08/30 15:14:11;;;;;;;3.30;2.60;;;;;;;;;;5035936;28;20213;-79
2023/08/30 15:16:37;;;;;;;2.30;2.10;;;;;;;;;;5020859;28;20227;-79
2023/08/30 15:19:05;;;;;;;2.22;2.03;;;;;;;;;;5037731;28;20219;-78
2023/08/30 15:21:30;;;;;;;2.25;1.60;;;;;;;;;;5037929;28;20227;-79
2023/08/30 15:23:56;;;;;;;2.33;2.13;;;;;;;;;;5050802;28;20565;-78
2023/08/30 15:26:21;;;;;;;2.30;2.10;;;;;;;;;;5039705;28;20221;-75
2023/08/30 15:28:47;;;;;;;2.35;2.05;;;;;;;;;;5054623;28;20238;-79
2023/08/30 15:31:14;;;;;;;3.10;2.40;;;;;;;;;;5028347;28;20217;-79
2023/08/30 15:33:42;;;;;;;2.20;2.00;;;;;;;;;;5054210;28;20231;-78
2023/08/30 15:36:12;;;;;;;2.08;1.95;;;;;;;;;;5039106;28;20227;-77
2023/08/30 15:38:38;;;;;;;2.80;2.55;;;;;;;;;;5054886;28;20222;-78
2023/08/30 15:41:06;;;;;;;2.40;2.20;;;;;;;;;;5054400;28;20671;-79
2023/08/30 15:43:39;;;;;;;2.20;2.00;;;;;;;;;;5047603;28;20226;-78
2023/08/30 15:46:15;;;;;;;2.40;2.20;;;;;;;;;;5057770;28;20226;-78
2023/08/30 15:48:41;;;;;;;6.38;2.45;;;;;;;;;;5055397;28;20226;-79
2023/08/30 15:51:09;;;;;;;4.53;3.65;;;;;;;;;;5023784;28;20226;-78
2023/08/30 15:53:35;;;;;;;3.90;3.60;;;;;;;;;;5041133;28;20303;-80
2023/08/30 15:56:01;;;;;;;3.92;3.30;;;;;;;;;;5040393;28;20214;-79
2023/08/30 15:58:26;;;;;;;5.18;4.35;;;;;;;;;;5035659;28;20242;-80
2023/08/30 16:00:52;;;;;;;5.03;4.60;;;;;;;;;;5041483;28;20222;-81
2023/08/30 16:03:18;;;;;;;5.43;4.93;;;;;;;;;;5023425;28;20214;-80